Time;durP1;ratioP1;P1;durP2;ratioP2;P2;SDS_P1;SDS_P2;PMS_P1;PMS_P2;Temp;Humidity;BMP_temperature;BMP_pressure;BME280_temperature;BME280_humidity;BME280_pressure;Samples;Min_cycle;Max_cycle;Signal;HPM_P1;HPM_P2
2021/09/05 00:00:28;;;;;;;20.75;12.95;;;16.70;99.90;;;;;;5032482;28;20025;-90
2021/09/05 00:02:53;;;;;;;22.40;13.10;;;16.70;99.90;;;;;;5032634;28;20676;-90
2021/09/05 00:05:19;;;;;;;20.02;12.90;;;16.70;99.90;;;;;;5033831;28;20088;-90
2021/09/05 00:07:45;;;;;;;21.73;13.18;;;16.70;99.90;;;;;;5032356;28;20036;-90
2021/09/05 00:10:11;;;;;;;23.83;13.82;;;16.70;99.90;;;;;;5032226;28;20120;-90
2021/09/05 00:12:37;;;;;;;20.60;13.25;;;16.60;99.90;;;;;;5032247;28;20036;-90
2021/09/05 00:15:04;;;;;;;24.40;13.52;;;16.60;99.90;;;;;;5032599;28;20026;-89
2021/09/05 00:17:30;;;;;;;23.25;13.30;;;16.60;99.90;;;;;;5032251;28;20113;-90
2021/09/05 00:19:56;;;;;;;23.48;13.75;;;16.60;99.90;;;;;;5032236;28;20461;-90
2021/09/05 00:22:21;;;;;;;21.50;12.82;;;16.60;99.90;;;;;;5033460;28;20041;-90
2021/09/05 00:24:47;;;;;;;22.70;13.40;;;16.60;99.90;;;;;;5032364;28;20513;-90
2021/09/05 00:27:12;;;;;;;24.17;13.57;;;16.50;99.90;;;;;;5031771;28;20479;-91
2021/09/05 00:29:38;;;;;;;21.70;13.57;;;16.60;99.90;;;;;;5031775;28;20029;-90
2021/09/05 00:32:04;;;;;;;20.13;13.32;;;16.50;99.90;;;;;;5032096;28;20030;-91
2021/09/05 00:34:30;;;;;;;21.70;13.98;;;16.50;99.90;;;;;;5032009;28;20498;-90
2021/09/05 00:36:55;;;;;;;20.50;13.48;;;16.50;99.90;;;;;;5031850;28;20029;-90
2021/09/05 00:39:21;;;;;;;21.50;13.30;;;16.50;99.90;;;;;;5031593;28;20108;-91
2021/09/05 00:41:47;;;;;;;22.63;12.60;;;16.50;99.90;;;;;;5033372;28;20025;-91
2021/09/05 00:44:13;;;;;;;19.73;13.13;;;16.50;99.90;;;;;;5031731;28;20026;-91
2021/09/05 00:46:39;;;;;;;22.70;13.55;;;16.40;99.90;;;;;;5031813;28;20028;-91
2021/09/05 00:49:07;;;;;;;23.08;13.75;;;16.40;99.90;;;;;;5032912;28;20037;-90
2021/09/05 00:51:36;;;;;;;22.55;13.50;;;16.40;99.90;;;;;;5031709;28;20079;-91
2021/09/05 00:54:03;;;;;;;22.75;13.52;;;16.40;99.90;;;;;;5031518;28;20033;-91
2021/09/05 00:56:32;;;;;;;23.10;13.10;;;16.30;99.90;;;;;;5032887;28;20040;-90
2021/09/05 00:59:02;;;;;;;;;;;16.30;99.90;;;;;;5031543;28;20025;-91
2021/09/05 01:01:28;;;;;;;26.23;15.20;;;16.30;99.90;;;;;;5032761;28;19905;-90
2021/09/05 01:03:53;;;;;;;23.40;13.93;;;16.30;99.90;;;;;;5031443;28;20386;-91
2021/09/05 01:06:20;;;;;;;21.98;13.82;;;16.30;99.90;;;;;;5031358;28;20024;-91
2021/09/05 01:08:47;;;;;;;23.30;13.93;;;16.20;99.90;;;;;;5031218;28;20188;-90
2021/09/05 01:11:13;;;;;;;20.67;13.15;;;16.20;99.90;;;;;;5031207;28;20026;-90
2021/09/05 01:13:39;;;;;;;22.80;14.23;;;16.20;99.90;;;;;;5031216;28;20148;-91
2021/09/05 01:16:05;;;;;;;24.52;14.32;;;16.20;99.90;;;;;;5032477;28;20032;-90
2021/09/05 01:18:30;;;;;;;24.88;14.25;;;16.20;99.90;;;;;;5032458;28;20030;-91
2021/09/05 01:20:56;;;;;;;23.48;13.32;;;16.10;99.90;;;;;;5032082;28;20028;-91
2021/09/05 01:23:22;;;;;;;23.35;14.57;;;16.10;99.90;;;;;;5031013;28;20084;-91
2021/09/05 01:25:48;;;;;;;23.10;14.00;;;16.10;99.90;;;;;;5031155;28;20021;-90
2021/09/05 01:28:13;;;;;;;22.90;13.35;;;16.10;99.90;;;;;;5031037;28;20514;-90
2021/09/05 01:30:40;;;;;;;20.67;13.63;;;16.10;99.90;;;;;;5030740;28;20033;-91
2021/09/05 01:33:05;;;;;;;20.35;13.65;;;16.10;99.90;;;;;;5031186;28;20044;-90
2021/09/05 01:35:34;;;;;;;22.40;13.20;;;16.00;99.90;;;;;;5030928;28;20026;-90
2021/09/05 01:38:00;;;;;;;23.08;13.60;;;16.10;99.90;;;;;;5030046;28;20029;-90
2021/09/05 01:40:26;;;;;;;21.70;13.35;;;16.00;99.90;;;;;;5030595;28;20074;-92
2021/09/05 01:42:51;;;;;;;24.75;14.65;;;16.00;99.90;;;;;;5030826;28;20094;-90
2021/09/05 01:45:17;;;;;;;25.52;15.50;;;16.00;99.90;;;;;;5030900;28;20502;-90
2021/09/05 01:47:43;;;;;;;25.08;14.50;;;16.00;99.90;;;;;;5030965;28;20128;-91
2021/09/05 01:50:09;;;;;;;21.42;14.02;;;15.90;99.90;;;;;;5030354;28;20033;-91
2021/09/05 01:52:35;;;;;;;22.83;13.20;;;15.80;99.90;;;;;;5030653;28;20037;-90
2021/09/05 01:55:00;;;;;;;26.70;15.52;;;15.80;99.90;;;;;;5030807;28;20037;-90
2021/09/05 01:57:26;;;;;;;21.63;14.68;;;15.80;99.90;;;;;;5032049;28;20036;-91
2021/09/05 01:59:51;;;;;;;21.52;13.80;;;15.90;99.90;;;;;;5030537;28;20022;-90
2021/09/05 02:02:17;;;;;;;25.50;15.00;;;15.80;99.90;;;;;;5032029;28;20105;-90
2021/09/05 02:04:43;;;;;;;25.25;15.57;;;15.80;99.90;;;;;;5030610;28;20052;-91
2021/09/05 02:07:08;;;;;;;22.63;14.65;;;15.80;99.90;;;;;;5030955;28;20032;-90
2021/09/05 02:09:34;;;;;;;26.83;15.25;;;15.80;99.90;;;;;;5032490;28;20076;-91
2021/09/05 02:11:59;;;;;;;23.33;14.93;;;15.70;99.90;;;;;;5032354;28;20057;-90
2021/09/05 02:14:25;;;;;;;23.98;14.82;;;15.70;99.90;;;;;;5032229;28;20030;-90
2021/09/05 02:16:50;;;;;;;25.52;15.10;;;15.70;99.90;;;;;;5031465;28;20033;-90
2021/09/05 02:19:16;;;;;;;23.92;14.63;;;15.70;99.90;;;;;;5030589;28;20083;-90
2021/09/05 02:21:42;;;;;;;24.17;15.73;;;15.70;99.90;;;;;;5030730;28;20030;-90
2021/09/05 02:24:07;;;;;;;25.95;16.23;;;15.70;99.90;;;;;;5031740;28;20040;-90
2021/09/05 02:26:33;;;;;;;25.15;15.80;;;15.70;99.90;;;;;;5030750;28;20532;-91
2021/09/05 02:28:58;;;;;;;27.13;16.40;;;15.70;99.90;;;;;;5031292;28;20084;-91
2021/09/05 02:31:24;;;;;;;23.80;14.73;;;15.70;99.90;;;;;;5030431;28;20033;-91
2021/09/05 02:33:50;;;;;;;26.55;16.73;;;15.70;99.90;;;;;;5030375;28;20048;-91
2021/09/05 02:36:15;;;;;;;24.92;15.15;;;15.60;99.90;;;;;;5030309;28;20422;-90
2021/09/05 02:38:41;;;;;;;27.00;15.65;;;15.60;99.90;;;;;;5030522;28;20036;-90
2021/09/05 02:41:07;;;;;;;27.75;16.48;;;15.60;99.90;;;;;;5030565;28;20025;-91
2021/09/05 02:43:32;;;;;;;27.45;16.45;;;15.60;99.90;;;;;;5031249;28;20027;-91
2021/09/05 02:45:58;;;;;;;24.98;15.75;;;15.60;99.90;;;;;;5031425;28;20069;-90
2021/09/05 02:48:24;;;;;;;25.52;15.90;;;15.60;99.90;;;;;;5031391;28;20124;-90
2021/09/05 02:50:49;;;;;;;27.52;15.93;;;15.60;99.90;;;;;;5034010;28;20421;-90
2021/09/05 02:53:15;;;;;;;23.00;15.23;;;15.60;99.90;;;;;;5035827;28;20030;-91
2021/09/05 02:55:41;;;;;;;24.25;16.33;;;15.60;99.90;;;;;;5034072;28;20486;-91
2021/09/05 02:58:06;;;;;;;24.52;15.30;;;15.60;99.90;;;;;;5033885;28;20505;-90
2021/09/05 03:00:32;;;;;;;25.35;16.02;;;15.50;99.90;;;;;;5033503;28;20028;-90
2021/09/05 03:02:58;;;;;;;25.80;15.45;;;15.50;99.90;;;;;;5033581;28;20026;-91
2021/09/05 03:05:23;;;;;;;25.00;14.60;;;15.50;99.90;;;;;;5033572;28;20032;-90
2021/09/05 03:07:49;;;;;;;25.90;15.25;;;15.50;99.90;;;;;;5033689;28;20482;-90
2021/09/05 03:10:14;;;;;;;23.40;15.25;;;15.40;99.90;;;;;;5033180;28;20037;-91
2021/09/05 03:12:40;;;;;;;23.92;15.48;;;15.40;99.90;;;;;;5034805;28;20025;-91
2021/09/05 03:15:06;;;;;;;29.23;15.95;;;15.50;99.90;;;;;;5033592;28;20029;-90
2021/09/05 03:17:32;;;;;;;23.90;15.18;;;15.40;99.90;;;;;;5033702;28;20029;-90
2021/09/05 03:19:58;;;;;;;27.70;16.02;;;15.40;99.90;;;;;;5033156;28;20025;-90
2021/09/05 03:22:23;;;;;;;28.58;17.05;;;15.40;99.90;;;;;;5033451;28;20056;-91
2021/09/05 03:24:49;;;;;;;24.15;14.50;;;15.30;99.90;;;;;;5033403;28;20022;-90
2021/09/05 03:27:14;;;;;;;24.33;15.35;;;15.30;99.90;;;;;;5033351;28;20025;-90
2021/09/05 03:29:40;;;;;;;28.17;15.75;;;15.30;99.90;;;;;;5034052;28;20049;-90
2021/09/05 03:32:06;;;;;;;22.48;15.07;;;15.30;99.90;;;;;;5033014;28;20022;-90
2021/09/05 03:34:32;;;;;;;23.35;15.20;;;15.30;99.90;;;;;;5034378;28;20483;-90
2021/09/05 03:36:57;;;;;;;25.95;16.10;;;15.30;99.90;;;;;;5033000;28;20022;-90
2021/09/05 03:39:23;;;;;;;25.60;15.65;;;15.30;99.90;;;;;;5032748;28;20385;-90
2021/09/05 03:41:48;;;;;;;23.40;15.57;;;15.30;99.90;;;;;;5032892;28;20064;-91
2021/09/05 03:44:14;;;;;;;26.33;15.15;;;15.40;99.90;;;;;;5033036;28;20025;-90
2021/09/05 03:46:42;;;;;;;28.08;16.23;;;15.30;99.90;;;;;;5034024;28;20474;-90
2021/09/05 03:49:08;;;;;;;27.50;16.80;;;15.30;99.90;;;;;;5033866;28;20497;-90
2021/09/05 03:51:33;;;;;;;24.17;15.52;;;15.20;99.90;;;;;;5032729;28;20040;-90
2021/09/05 03:53:59;;;;;;;27.20;15.90;;;15.30;99.90;;;;;;5033831;28;20505;-90
2021/09/05 03:56:25;;;;;;;24.35;15.30;;;15.30;99.90;;;;;;5034147;28;20031;-90
2021/09/05 03:58:50;;;;;;;25.17;15.52;;;15.20;99.90;;;;;;5032852;28;20036;-90
2021/09/05 04:01:16;;;;;;;28.08;17.55;;;15.20;99.90;;;;;;5033292;28;20081;-91
2021/09/05 04:03:41;;;;;;;27.27;17.02;;;15.20;99.90;;;;;;5032503;28;20036;-90
2021/09/05 04:06:07;;;;;;;25.98;16.40;;;15.10;99.90;;;;;;5032854;28;20025;-89
2021/09/05 04:08:44;;;;;;;32.50;18.05;;;15.10;99.90;;;;;;5032670;28;20048;-89
2021/09/05 04:11:10;;;;;;;33.17;17.30;;;15.10;99.90;;;;;;5032278;28;20025;-89
2021/09/05 04:13:36;;;;;;;26.20;16.23;;;15.10;99.90;;;;;;5032345;28;20079;-88
2021/09/05 04:16:01;;;;;;;25.98;15.88;;;15.10;99.90;;;;;;5032306;28;20032;-89
2021/09/05 04:18:27;;;;;;;27.83;16.13;;;15.10;99.90;;;;;;5033757;28;20025;-89
2021/09/05 04:20:53;;;;;;;30.23;17.08;;;15.10;99.90;;;;;;5031798;28;20045;-90
2021/09/05 04:23:19;;;;;;;26.77;16.15;;;15.10;99.90;;;;;;5033498;28;20478;-90
2021/09/05 04:25:44;;;;;;;25.58;14.88;;;15.20;99.90;;;;;;5032315;28;20025;-90
2021/09/05 04:28:10;;;;;;;29.08;16.88;;;15.20;99.90;;;;;;5033494;28;20029;-89
2021/09/05 04:30:35;;;;;;;26.90;18.05;;;15.20;99.90;;;;;;5031705;28;20033;-90
2021/09/05 04:33:01;;;;;;;28.27;17.38;;;15.20;99.90;;;;;;5032086;28;20025;-90
2021/09/05 04:35:27;;;;;;;28.00;17.63;;;15.10;99.90;;;;;;5033624;28;20032;-90
2021/09/05 04:37:52;;;;;;;27.67;16.85;;;15.00;99.90;;;;;;5032210;28;20056;-89
2021/09/05 04:40:18;;;;;;;26.25;16.73;;;15.00;99.90;;;;;;5032016;28;20062;-89
2021/09/05 04:42:44;;;;;;;31.90;17.30;;;15.00;99.90;;;;;;5031997;28;20029;-89
2021/09/05 04:45:10;;;;;;;30.77;17.83;;;15.00;99.90;;;;;;5033267;28;20028;-89
2021/09/05 04:47:35;;;;;;;28.20;17.13;;;15.00;99.90;;;;;;5033090;28;20022;-88
2021/09/05 04:50:01;;;;;;;28.90;17.38;;;15.00;99.90;;;;;;5032019;28;20075;-88
2021/09/05 04:52:26;;;;;;;27.73;16.20;;;15.00;99.90;;;;;;5032947;28;20549;-90
2021/09/05 04:54:52;;;;;;;26.60;17.08;;;15.10;99.90;;;;;;5085288;23;20084;-83
2021/09/05 04:57:18;;;;;;;28.80;16.05;;;15.10;99.90;;;;;;5054260;28;20078;-84
2021/09/05 04:59:43;;;;;;;27.30;17.08;;;15.00;99.90;;;;;;5053832;28;20071;-84
2021/09/05 05:02:09;;;;;;;24.20;14.85;;;15.00;99.90;;;;;;5053762;28;20029;-83
2021/09/05 05:04:34;;;;;;;26.17;16.85;;;15.00;99.90;;;;;;5054291;28;20116;-83
2021/09/05 05:07:00;;;;;;;28.40;16.95;;;15.00;99.90;;;;;;5053307;28;20497;-83
2021/09/05 05:09:27;;;;;;;27.15;16.60;;;15.00;99.90;;;;;;5053077;28;20465;-83
2021/09/05 05:11:52;;;;;;;30.23;17.25;;;15.00;99.90;;;;;;5052868;28;20084;-83
2021/09/05 05:14:18;;;;;;;28.63;16.63;;;15.00;99.90;;;;;;5053231;28;20579;-84
2021/09/05 05:16:43;;;;;;;24.23;15.57;;;15.00;99.90;;;;;;5054643;28;20150;-83
2021/09/05 05:19:09;;;;;;;25.00;15.30;;;15.00;99.90;;;;;;5052869;28;20119;-83
2021/09/05 05:21:35;;;;;;;24.58;15.73;;;15.00;99.90;;;;;;5053795;28;20025;-83
2021/09/05 05:24:00;;;;;;;28.00;16.50;;;15.00;99.90;;;;;;5053166;28;20083;-84
2021/09/05 05:26:27;;;;;;;29.38;17.00;;;15.00;99.90;;;;;;5052979;28;20035;-83
2021/09/05 05:28:56;;;;;;;29.63;17.55;;;15.00;99.90;;;;;;5053396;28;20037;-83
2021/09/05 05:31:22;;;;;;;29.60;17.83;;;15.00;99.90;;;;;;5053793;28;20032;-83
2021/09/05 05:33:47;;;;;;;28.25;16.52;;;15.00;99.90;;;;;;5054840;28;20083;-83
2021/09/05 05:36:13;;;;;;;27.63;17.08;;;15.00;99.90;;;;;;5053227;28;20116;-83
2021/09/05 05:38:39;;;;;;;29.63;16.77;;;14.90;99.90;;;;;;5053210;28;20423;-83
2021/09/05 05:41:05;;;;;;;28.00;15.82;;;15.00;99.90;;;;;;5053073;28;20021;-84
2021/09/05 05:43:33;;;;;;;29.33;17.08;;;15.00;99.90;;;;;;5053260;28;20032;-84
2021/09/05 05:45:59;;;;;;;27.30;16.77;;;15.00;99.90;;;;;;5053407;28;20040;-83
2021/09/05 05:48:24;;;;;;;30.33;16.35;;;15.00;99.90;;;;;;5053031;28;20033;-83
2021/09/05 05:50:52;;;;;;;26.40;16.55;;;15.00;99.90;;;;;;5052519;28;20116;-83
2021/09/05 05:53:17;;;;;;;28.48;17.10;;;15.00;99.90;;;;;;5054041;28;20040;-84
2021/09/05 05:55:43;;;;;;;29.80;16.65;;;15.00;99.90;;;;;;5052608;28;20033;-84
2021/09/05 05:58:08;;;;;;;26.40;16.45;;;15.00;99.90;;;;;;5052855;28;20029;-83
2021/09/05 06:00:35;;;;;;;27.58;16.55;;;15.00;99.90;;;;;;5054838;28;20032;-83
2021/09/05 06:03:01;;;;;;;27.67;16.38;;;15.00;99.90;;;;;;5053090;28;20074;-83
2021/09/05 06:05:27;;;;;;;26.63;16.00;;;15.10;99.90;;;;;;5053563;28;20029;-83
2021/09/05 06:07:52;;;;;;;29.20;17.42;;;15.10;99.90;;;;;;5053239;28;20028;-83
2021/09/05 06:10:18;;;;;;;27.10;17.23;;;15.10;99.90;;;;;;5053158;28;20604;-83
2021/09/05 06:12:44;;;;;;;26.48;15.80;;;15.10;99.90;;;;;;5055393;28;20057;-83
2021/09/05 06:15:10;;;;;;;30.50;17.15;;;15.20;99.90;;;;;;5054349;28;20029;-83
2021/09/05 06:17:36;;;;;;;26.92;16.48;;;15.20;99.90;;;;;;5056498;28;20112;-84
2021/09/05 06:20:01;;;;;;;27.55;17.75;;;15.20;99.90;;;;;;5054418;28;20442;-83
2021/09/05 06:22:27;;;;;;;28.67;17.13;;;15.30;99.90;;;;;;5054888;28;20036;-83
2021/09/05 06:24:52;;;;;;;31.35;18.08;;;15.30;99.90;;;;;;5056992;28;20021;-84
2021/09/05 06:27:18;;;;;;;29.50;17.77;;;15.30;99.90;;;;;;5061003;28;20102;-84
2021/09/05 06:29:44;;;;;;;25.65;15.70;;;15.30;99.90;;;;;;5059002;28;20017;-83
2021/09/05 06:32:09;;;;;;;29.13;17.60;;;15.30;99.90;;;;;;5057968;28;20027;-84
2021/09/05 06:34:35;;;;;;;26.85;16.67;;;15.40;99.90;;;;;;5060085;28;20024;-83
2021/09/05 06:37:01;;;;;;;28.80;17.38;;;15.40;99.90;;;;;;5058081;28;20025;-83
2021/09/05 06:39:27;;;;;;;28.75;17.17;;;15.40;99.90;;;;;;5058028;28;20118;-84
2021/09/05 06:41:52;;;;;;;29.20;17.83;;;15.50;99.90;;;;;;5058772;28;20048;-84
2021/09/05 06:44:18;;;;;;;28.38;17.70;;;15.50;99.90;;;;;;5059399;28;20465;-84
2021/09/05 06:46:44;;;;;;;27.60;17.27;;;15.50;99.90;;;;;;5061907;28;20478;-83
2021/09/05 06:49:09;;;;;;;26.58;17.17;;;15.50;99.90;;;;;;5058125;28;20021;-84
2021/09/05 06:51:35;;;;;;;25.52;16.52;;;15.60;99.90;;;;;;5061385;28;20029;-84
2021/09/05 06:54:00;;;;;;;26.98;17.27;;;15.60;99.90;;;;;;5059476;28;20056;-83
2021/09/05 06:56:26;;;;;;;22.70;15.25;;;15.60;99.90;;;;;;5059186;28;20460;-83
2021/09/05 06:58:52;;;;;;;26.63;15.50;;;15.60;99.90;;;;;;5059272;28;20056;-84
2021/09/05 07:01:17;;;;;;;24.67;15.70;;;15.70;99.90;;;;;;5058518;28;20021;-84
2021/09/05 07:03:43;;;;;;;27.75;17.25;;;15.70;99.90;;;;;;5057818;28;20059;-84
2021/09/05 07:06:09;;;;;;;26.90;16.60;;;15.80;99.90;;;;;;5057762;28;20021;-83
2021/09/05 07:08:35;;;;;;;26.80;16.63;;;15.80;99.90;;;;;;5060792;28;20112;-83
2021/09/05 07:11:01;;;;;;;26.63;16.15;;;15.80;99.90;;;;;;5058473;28;20028;-84
2021/09/05 07:13:26;;;;;;;26.25;16.25;;;15.90;99.90;;;;;;5059248;28;20029;-83
2021/09/05 07:15:52;;;;;;;23.52;15.35;;;15.90;99.90;;;;;;5057890;28;20029;-83
2021/09/05 07:18:18;;;;;;;27.20;17.20;;;15.90;99.90;;;;;;5057651;28;20033;-84
2021/09/05 07:20:43;;;;;;;27.38;17.05;;;16.00;99.90;;;;;;5058677;28;20021;-83
2021/09/05 07:23:09;;;;;;;28.45;16.77;;;16.00;99.90;;;;;;5058363;28;20075;-83
2021/09/05 07:25:34;;;;;;;22.50;15.07;;;16.00;99.90;;;;;;5057332;28;20021;-83
2021/09/05 07:28:00;;;;;;;26.10;15.90;;;16.10;99.90;;;;;;5058028;28;20390;-83
2021/09/05 07:30:26;;;;;;;26.85;16.13;;;16.10;99.90;;;;;;5056573;28;20025;-84
2021/09/05 07:32:51;;;;;;;24.17;15.70;;;16.10;99.90;;;;;;5056908;28;20040;-84
2021/09/05 07:35:17;;;;;;;25.58;15.90;;;16.20;99.90;;;;;;5056569;28;20040;-84
2021/09/05 07:37:46;;;;;;;22.10;14.05;;;16.20;99.90;;;;;;5057711;28;20078;-83
2021/09/05 07:40:14;;;;;;;26.38;15.18;;;16.30;99.90;;;;;;5057705;28;20040;-84
2021/09/05 07:42:40;;;;;;;22.33;14.80;;;16.30;99.90;;;;;;5060143;28;20029;-84
2021/09/05 07:45:06;;;;;;;26.20;15.70;;;16.30;99.90;;;;;;5057742;28;20100;-83
2021/09/05 07:47:32;;;;;;;26.77;15.50;;;16.40;99.90;;;;;;5057911;28;20021;-83
2021/09/05 07:49:58;;;;;;;25.20;15.90;;;16.40;99.90;;;;;;5058448;28;20477;-83
2021/09/05 07:52:24;;;;;;;23.13;14.15;;;16.40;99.90;;;;;;5059505;28;20029;-83
2021/09/05 07:54:49;;;;;;;25.58;15.68;;;16.40;99.90;;;;;;5057651;28;20032;-84
2021/09/05 07:57:15;;;;;;;26.33;16.17;;;16.50;99.90;;;;;;5059529;28;20163;-84
2021/09/05 07:59:40;;;;;;;22.23;14.27;;;16.50;99.90;;;;;;5057985;28;20044;-83
2021/09/05 08:02:06;;;;;;;22.80;14.50;;;16.50;99.90;;;;;;5057513;28;20051;-84
2021/09/05 08:04:32;;;;;;;23.20;14.73;;;16.60;99.90;;;;;;5059164;28;20013;-84
2021/09/05 08:06:57;;;;;;;24.42;15.48;;;16.60;99.90;;;;;;5057512;28;20048;-83
2021/09/05 08:09:23;;;;;;;24.92;15.60;;;16.60;99.90;;;;;;5059219;28;20047;-83
2021/09/05 08:11:48;;;;;;;26.90;16.20;;;16.70;99.90;;;;;;5057701;28;20025;-83
2021/09/05 08:14:14;;;;;;;22.60;14.95;;;16.70;99.90;;;;;;5057619;28;20028;-83
2021/09/05 08:16:40;;;;;;;22.27;13.73;;;16.70;99.90;;;;;;5059677;28;20040;-83
2021/09/05 08:19:06;;;;;;;21.20;14.30;;;16.80;99.90;;;;;;5059016;28;20036;-84
2021/09/05 08:21:32;;;;;;;23.42;14.52;;;16.80;99.90;;;;;;5057736;28;20449;-83
2021/09/05 08:23:57;;;;;;;20.27;13.30;;;16.90;99.90;;;;;;5057885;28;20025;-84
2021/09/05 08:26:23;;;;;;;20.42;13.25;;;16.90;99.90;;;;;;5059127;28;20374;-84
2021/09/05 08:28:51;;;;;;;22.00;13.98;;;16.90;99.90;;;;;;5057010;28;20075;-84
2021/09/05 08:31:17;;;;;;;23.42;14.75;;;16.90;99.90;;;;;;5055918;28;20116;-84
2021/09/05 08:33:43;;;;;;;20.38;12.77;;;17.00;99.90;;;;;;5059103;28;20025;-83
2021/09/05 08:36:09;;;;;;;18.55;12.13;;;17.00;99.90;;;;;;5057058;28;20510;-83
2021/09/05 08:38:34;;;;;;;22.55;14.05;;;17.10;99.90;;;;;;5058559;28;20461;-84
2021/09/05 08:41:00;;;;;;;20.27;12.93;;;17.10;99.90;;;;;;5056471;28;20525;-83
2021/09/05 08:43:27;;;;;;;19.42;12.32;;;17.10;99.90;;;;;;5056727;28;20021;-84
2021/09/05 08:45:53;;;;;;;19.30;13.20;;;17.20;99.90;;;;;;5057613;28;20051;-84
2021/09/05 08:48:21;;;;;;;17.83;11.73;;;17.20;99.90;;;;;;5057732;28;20396;-84
2021/09/05 08:50:49;;;;;;;18.92;12.45;;;17.20;99.90;;;;;;5059203;28;20025;-84
2021/09/05 08:53:18;;;;;;;18.15;12.50;;;17.30;99.90;;;;;;5057166;28;20029;-84
2021/09/05 08:55:45;;;;;;;18.20;12.35;;;17.30;99.90;;;;;;5057111;28;20029;-84
2021/09/05 08:58:11;;;;;;;17.88;12.52;;;17.30;99.90;;;;;;5057156;28;20079;-84
2021/09/05 09:00:37;;;;;;;19.48;12.43;;;17.40;99.90;;;;;;5058795;28;20388;-84
2021/09/05 09:03:02;;;;;;;17.17;12.05;;;17.40;99.90;;;;;;5059846;28;20416;-84
2021/09/05 09:05:38;;;;;;;18.65;13.05;;;17.50;99.90;;;;;;5055901;28;20099;-84
2021/09/05 09:08:06;;;;;;;19.02;13.23;;;17.50;99.90;;;;;;5052730;28;20448;-84
2021/09/05 09:10:33;;;;;;;23.88;13.63;;;17.50;99.90;;;;;;5051777;28;20051;-85
2021/09/05 09:12:59;;;;;;;18.80;13.20;;;17.50;99.90;;;;;;5051910;28;20087;-84
2021/09/05 09:15:32;;;;;;;20.08;12.80;;;17.70;99.90;;;;;;5052103;28;20028;-84
2021/09/05 09:18:00;;;;;;;17.17;11.77;;;17.70;99.90;;;;;;5053275;28;20496;-84
2021/09/05 09:20:43;;;;;;;16.80;11.50;;;17.70;99.90;;;;;;5051529;28;20397;-84
2021/09/05 09:23:16;;;;;;;18.88;12.02;;;17.70;99.90;;;;;;5051778;28;20100;-84
2021/09/05 09:25:51;;;;;;;18.30;11.80;;;17.70;99.90;;;;;;5051505;28;20025;-84
2021/09/05 09:28:33;;;;;;;19.52;12.48;;;17.70;99.90;;;;;;5051800;28;20021;-84
2021/09/05 09:31:20;;;;;;;19.90;12.55;;;17.80;99.90;;;;;;5057611;28;20108;-84
2021/09/05 09:33:54;;;;;;;19.25;12.10;;;17.80;99.90;;;;;;5057509;28;20025;-84
2021/09/05 09:36:30;;;;;;;18.83;12.07;;;17.80;99.90;;;;;;5057436;28;20047;-84
2021/09/05 09:38:57;;;;;;;18.92;12.70;;;17.80;99.90;;;;;;5056434;28;20029;-84
2021/09/05 09:41:31;;;;;;;17.48;11.50;;;17.90;99.90;;;;;;5057414;28;20048;-84
2021/09/05 09:44:02;;;;;;;21.85;13.68;;;18.00;99.90;;;;;;5057028;28;20021;-84
2021/09/05 09:46:31;;;;;;;19.45;12.43;;;18.10;99.90;;;;;;5058823;28;20036;-83
2021/09/05 09:49:02;;;;;;;17.08;11.95;;;18.00;99.90;;;;;;5056688;28;20547;-83
2021/09/05 09:51:27;;;;;;;20.48;12.98;;;18.10;99.90;;;;;;5056705;28;20033;-84
2021/09/05 09:53:54;;;;;;;21.42;12.68;;;18.10;99.90;;;;;;5057177;28;20032;-84
2021/09/05 09:56:20;;;;;;;18.48;11.85;;;18.10;99.90;;;;;;5057455;28;20025;-84
2021/09/05 09:58:51;;;;;;;18.75;12.48;;;18.20;99.90;;;;;;5059478;28;20414;-84
2021/09/05 10:01:21;;;;;;;19.95;10.90;;;18.10;99.90;;;;;;5062788;28;20031;-84
2021/09/05 10:03:52;;;;;;;19.85;13.35;;;18.10;99.90;;;;;;5063427;28;20025;-84
2021/09/05 10:06:18;;;;;;;20.23;13.02;;;18.20;99.90;;;;;;5063601;28;20024;-84
2021/09/05 10:08:46;;;;;;;22.00;14.52;;;18.20;99.90;;;;;;5063644;28;20074;-84
2021/09/05 10:11:16;;;;;;;21.63;13.52;;;18.20;99.90;;;;;;5063196;28;20028;-84
2021/09/05 10:13:43;;;;;;;22.13;14.18;;;18.40;99.90;;;;;;5062261;28;20021;-84
2021/09/05 10:16:10;;;;;;;20.38;13.68;;;18.40;99.90;;;;;;5063813;28;20021;-84
2021/09/05 10:18:41;;;;;;;19.88;13.25;;;18.50;99.90;;;;;;5062282;28;20028;-84
2021/09/05 10:21:07;;;;;;;19.30;13.48;;;18.50;99.90;;;;;;5061441;28;20018;-84
2021/09/05 10:23:34;;;;;;;17.65;12.45;;;18.60;99.90;;;;;;5060909;28;20029;-84
2021/09/05 10:26:12;;;;;;;17.10;12.07;;;18.60;99.90;;;;;;5061300;28;20509;-84
2021/09/05 10:28:43;;;;;;;18.67;12.30;;;18.60;99.90;;;;;;5062581;28;20036;-84
2021/09/05 10:31:10;;;;;;;20.25;12.60;;;18.70;99.90;;;;;;5061482;28;20032;-84
2021/09/05 10:33:44;;;;;;;19.10;12.65;;;18.70;99.90;;;;;;5062246;28;20025;-84
2021/09/05 10:36:15;;;;;;;21.45;13.05;;;18.70;99.90;;;;;;5061576;28;20048;-84
2021/09/05 10:38:45;;;;;;;16.75;11.00;;;18.60;99.90;;;;;;5061416;28;20086;-84
2021/09/05 10:41:21;;;;;;;16.38;11.25;;;18.60;99.90;;;;;;5061000;28;20021;-84
2021/09/05 10:43:58;;;;;;;17.20;11.82;;;18.60;99.90;;;;;;5062760;28;20021;-84
2021/09/05 10:46:29;;;;;;;20.58;13.02;;;18.60;99.90;;;;;;5063006;28;20086;-84
2021/09/05 10:48:56;;;;;;;19.70;12.55;;;18.60;99.90;;;;;;5061795;28;20123;-84
2021/09/05 10:51:26;;;;;;;19.17;12.45;;;18.70;99.90;;;;;;5065079;28;20025;-84
2021/09/05 10:54:01;;;;;;;17.02;11.82;;;18.70;99.90;;;;;;5064451;28;20036;-84
2021/09/05 10:56:42;;;;;;;19.83;12.25;;;18.70;99.90;;;;;;5063671;28;20036;-84
2021/09/05 10:59:09;;;;;;;22.50;13.93;;;18.80;99.90;;;;;;5064717;28;20029;-84
2021/09/05 11:01:41;;;;;;;19.55;12.57;;;18.80;99.90;;;;;;5060662;28;20401;-84
2021/09/05 11:04:10;;;;;;;20.70;13.50;;;18.90;99.90;;;;;;5055456;28;20036;-84
2021/09/05 11:06:40;;;;;;;18.27;11.60;;;18.90;99.90;;;;;;5056751;28;20478;-84
2021/09/05 11:09:22;;;;;;;17.70;12.30;;;19.00;99.90;;;;;;5055033;28;20029;-84
2021/09/05 11:11:55;;;;;;;16.85;10.73;;;19.00;99.90;;;;;;5054929;28;20486;-84
2021/09/05 11:14:40;;;;;;;17.40;11.15;;;19.00;99.90;;;;;;5055113;28;20033;-83
2021/09/05 11:17:12;;;;;;;18.50;11.77;;;19.10;99.90;;;;;;5055383;28;20024;-84
2021/09/05 11:19:44;;;;;;;18.50;12.55;;;19.00;99.90;;;;;;5054778;28;20029;-83
2021/09/05 11:22:33;;;;;;;21.33;12.80;;;19.10;99.90;;;;;;5054670;28;20029;-84
2021/09/05 11:25:26;;;;;;;18.45;11.65;;;19.20;99.90;;;;;;5055926;28;20070;-83
2021/09/05 11:27:59;;;;;;;20.67;12.85;;;19.20;99.90;;;;;;5054464;28;20025;-84
2021/09/05 11:30:29;;;;;;;20.17;12.10;;;19.30;99.90;;;;;;5054281;28;20029;-83
2021/09/05 11:33:06;;;;;;;18.52;12.13;;;19.30;99.90;;;;;;5054543;28;20544;-84
2021/09/05 11:35:41;;;;;;;19.02;12.98;;;19.30;99.90;;;;;;5055409;28;20104;-84
2021/09/05 11:38:07;;;;;;;21.77;12.80;;;19.30;99.90;;;;;;5055728;28;20074;-84
2021/09/05 11:40:48;;;;;;;16.35;11.43;;;19.40;99.90;;;;;;5055156;28;20035;-84
2021/09/05 11:43:13;;;;;;;16.17;11.10;;;19.40;99.80;;;;;;5055094;28;20025;-84
2021/09/05 11:45:41;;;;;;;16.38;11.05;;;19.40;99.90;;;;;;5054328;28;20025;-84
2021/09/05 11:48:08;;;;;;;15.75;10.82;;;19.40;99.90;;;;;;5053868;28;20032;-83
2021/09/05 11:50:36;;;;;;;17.08;11.85;;;19.40;99.90;;;;;;5055263;28;20044;-84
2021/09/05 11:53:02;;;;;;;17.70;11.75;;;19.40;99.90;;;;;;5055388;28;20028;-84
2021/09/05 11:55:28;;;;;;;17.75;11.50;;;19.40;99.90;;;;;;5054607;28;20040;-84
2021/09/05 11:57:55;;;;;;;16.45;11.48;;;19.50;99.90;;;;;;5053703;28;20025;-84
2021/09/05 12:00:26;;;;;;;17.17;10.93;;;19.50;99.90;;;;;;5053832;28;20032;-84
2021/09/05 12:02:52;;;;;;;21.20;12.93;;;19.60;99.90;;;;;;5053847;28;20116;-84
2021/09/05 12:05:18;;;;;;;19.27;11.75;;;19.70;99.90;;;;;;5055438;28;20028;-83
2021/09/05 12:07:44;;;;;;;17.00;11.23;;;19.80;99.80;;;;;;5054047;28;20056;-83
2021/09/05 12:10:25;;;;;;;17.40;11.15;;;19.80;99.60;;;;;;5053473;28;20029;-84
2021/09/05 12:13:06;;;;;;;17.70;11.75;;;19.90;99.50;;;;;;5053757;28;20033;-84
2021/09/05 12:15:36;;;;;;;17.42;10.95;;;19.90;99.20;;;;;;5054365;28;20079;-84
2021/09/05 12:18:13;;;;;;;15.25;11.18;;;19.80;99.00;;;;;;5053484;28;20543;-84
2021/09/05 12:20:43;;;;;;;19.00;11.98;;;19.80;99.20;;;;;;5053144;28;20121;-84
2021/09/05 12:23:27;;;;;;;17.80;11.45;;;19.90;99.40;;;;;;5052429;28;20036;-84
2021/09/05 12:25:54;;;;;;;17.58;11.85;;;20.00;99.00;;;;;;5054860;28;20025;-84
2021/09/05 12:28:28;;;;;;;14.52;10.60;;;20.10;98.80;;;;;;5053389;28;20132;-84